sensor_id;sensor_type;location;lat;lon;timestamp;P1;durP1;ratioP1;P2;durP2;ratioP2
68089;SDS011;54880;50.986;6.990;2023-03-01T00:01:26;18.47;;;6.40;;
68089;SDS011;54880;50.986;6.990;2023-03-01T00:03:52;9.83;;;4.77;;
68089;SDS011;54880;50.986;6.990;2023-03-01T00:06:18;13.15;;;5.72;;
68089;SDS011;54880;50.986;6.990;2023-03-01T00:08:43;11.52;;;5.05;;
68089;SDS011;54880;50.986;6.990;2023-03-01T00:11:17;11.43;;;4.97;;
68089;SDS011;54880;50.986;6.990;2023-03-01T00:13:43;12.48;;;5.25;;
68089;SDS011;54880;50.986;6.990;2023-03-01T00:16:10;14.73;;;5.10;;
68089;SDS011;54880;50.986;6.990;2023-03-01T00:18:36;12.88;;;5.60;;
68089;SDS011;54880;50.986;6.990;2023-03-01T00:21:01;11.40;;;5.17;;
68089;SDS011;54880;50.986;6.990;2023-03-01T00:23:27;10.53;;;4.80;;
68089;SDS011;54880;50.986;6.990;2023-03-01T00:25:52;12.02;;;5.35;;
68089;SDS011;54880;50.986;6.990;2023-03-01T00:28:18;12.57;;;5.13;;
68089;SDS011;54880;50.986;6.990;2023-03-01T00:30:44;11.43;;;5.30;;
68089;SDS011;54880;50.986;6.990;2023-03-01T00:33:09;11.60;;;5.30;;
68089;SDS011;54880;50.986;6.990;2023-03-01T00:35:35;12.13;;;5.13;;
68089;SDS011;54880;50.986;6.990;2023-03-01T00:38:00;12.43;;;5.07;;
68089;SDS011;54880;50.986;6.990;2023-03-01T00:40:29;10.48;;;5.32;;
68089;SDS011;54880;50.986;6.990;2023-03-01T00:42:55;14.07;;;5.55;;
68089;SDS011;54880;50.986;6.990;2023-03-01T00:45:20;12.80;;;5.40;;
68089;SDS011;54880;50.986;6.990;2023-03-01T00:47:46;13.57;;;4.82;;
68089;SDS011;54880;50.986;6.990;2023-03-01T00:50:11;12.10;;;4.63;;
68089;SDS011;54880;50.986;6.990;2023-03-01T00:52:37;11.97;;;6.00;;
68089;SDS011;54880;50.986;6.990;2023-03-01T00:55:02;12.37;;;5.03;;
68089;SDS011;54880;50.986;6.990;2023-03-01T00:57:28;12.43;;;5.20;;
68089;SDS011;54880;50.986;6.990;2023-03-01T00:59:53;12.70;;;5.13;;
68089;SDS011;54880;50.986;6.990;2023-03-01T01:02:19;10.63;;;5.67;;
68089;SDS011;54880;50.986;6.990;2023-03-01T01:04:44;10.68;;;5.28;;
68089;SDS011;54880;50.986;6.990;2023-03-01T01:07:10;11.63;;;5.35;;
68089;SDS011;54880;50.986;6.990;2023-03-01T01:09:35;13.63;;;5.57;;
68089;SDS011;54880;50.986;6.990;2023-03-01T01:12:01;14.15;;;5.65;;
68089;SDS011;54880;50.986;6.990;2023-03-01T01:14:26;11.30;;;5.13;;
68089;SDS011;54880;50.986;6.990;2023-03-01T01:16:53;11.40;;;5.77;;
68089;SDS011;54880;50.986;6.990;2023-03-01T01:19:18;12.23;;;5.05;;
68089;SDS011;54880;50.986;6.990;2023-03-01T01:21:43;13.17;;;5.77;;
68089;SDS011;54880;50.986;6.990;2023-03-01T01:24:09;11.27;;;5.28;;
68089;SDS011;54880;50.986;6.990;2023-03-01T01:26:35;12.55;;;5.97;;
68089;SDS011;54880;50.986;6.990;2023-03-01T01:29:01;11.00;;;5.27;;
68089;SDS011;54880;50.986;6.990;2023-03-01T01:31:26;13.60;;;5.73;;
68089;SDS011;54880;50.986;6.990;2023-03-01T01:33:53;11.18;;;5.45;;
68089;SDS011;54880;50.986;6.990;2023-03-01T01:36:18;11.63;;;5.30;;
68089;SDS011;54880;50.986;6.990;2023-03-01T01:38:43;12.65;;;5.43;;
68089;SDS011;54880;50.986;6.990;2023-03-01T01:41:10;14.05;;;5.93;;
68089;SDS011;54880;50.986;6.990;2023-03-01T01:43:43;12.50;;;5.63;;
68089;SDS011;54880;50.986;6.990;2023-03-01T01:49:38;11.60;;;5.13;;
68089;SDS011;54880;50.986;6.990;2023-03-01T01:54:38;13.10;;;5.43;;
68089;SDS011;54880;50.986;6.990;2023-03-01T01:57:06;13.70;;;5.60;;
68089;SDS011;54880;50.986;6.990;2023-03-01T01:59:32;13.07;;;5.30;;
68089;SDS011;54880;50.986;6.990;2023-03-01T02:01:59;12.65;;;5.68;;
68089;SDS011;54880;50.986;6.990;2023-03-01T02:04:25;12.48;;;5.30;;
68089;SDS011;54880;50.986;6.990;2023-03-01T02:07:12;11.73;;;6.03;;
68089;SDS011;54880;50.986;6.990;2023-03-01T02:09:38;11.65;;;4.97;;
68089;SDS011;54880;50.986;6.990;2023-03-01T02:12:04;12.40;;;5.37;;
68089;SDS011;54880;50.986;6.990;2023-03-01T02:14:30;12.80;;;5.60;;
68089;SDS011;54880;50.986;6.990;2023-03-01T02:16:56;13.25;;;5.75;;
68089;SDS011;54880;50.986;6.990;2023-03-01T02:19:38;11.93;;;5.37;;
68089;SDS011;54880;50.986;6.990;2023-03-01T02:27:16;12.57;;;5.40;;
68089;SDS011;54880;50.986;6.990;2023-03-01T02:29:42;11.13;;;5.07;;
68089;SDS011;54880;50.986;6.990;2023-03-01T02:32:09;13.35;;;5.00;;
68089;SDS011;54880;50.986;6.990;2023-03-01T02:34:36;12.63;;;5.22;;
68089;SDS011;54880;50.986;6.990;2023-03-01T02:37:04;10.75;;;4.80;;
68089;SDS011;54880;50.986;6.990;2023-03-01T02:39:32;12.70;;;5.37;;
68089;SDS011;54880;50.986;6.990;2023-03-01T02:41:59;10.73;;;5.20;;
68089;SDS011;54880;50.986;6.990;2023-03-01T02:44:25;12.60;;;5.25;;
68089;SDS011;54880;50.986;6.990;2023-03-01T02:46:51;12.13;;;5.40;;
68089;SDS011;54880;50.986;6.990;2023-03-01T02:49:24;12.82;;;5.97;;
68089;SDS011;54880;50.986;6.990;2023-03-01T02:51:56;12.82;;;5.40;;
68089;SDS011;54880;50.986;6.990;2023-03-01T02:54:31;11.63;;;5.83;;
68089;SDS011;54880;50.986;6.990;2023-03-01T02:56:58;12.90;;;5.97;;
68089;SDS011;54880;50.986;6.990;2023-03-01T02:59:26;12.25;;;5.53;;
68089;SDS011;54880;50.986;6.990;2023-03-01T03:01:52;11.55;;;5.57;;
68089;SDS011;54880;50.986;6.990;2023-03-01T03:04:17;12.73;;;6.17;;
68089;SDS011;54880;50.986;6.990;2023-03-01T03:06:46;11.05;;;5.50;;
68089;SDS011;54880;50.986;6.990;2023-03-01T03:09:12;13.35;;;5.80;;
68089;SDS011;54880;50.986;6.990;2023-03-01T03:11:38;12.43;;;5.60;;
68089;SDS011;54880;50.986;6.990;2023-03-01T03:14:04;12.43;;;5.50;;
68089;SDS011;54880;50.986;6.990;2023-03-01T03:16:30;14.63;;;6.10;;
68089;SDS011;54880;50.986;6.990;2023-03-01T03:18:55;12.47;;;5.30;;
68089;SDS011;54880;50.986;6.990;2023-03-01T03:21:30;12.93;;;5.97;;
68089;SDS011;54880;50.986;6.990;2023-03-01T03:23:55;14.13;;;5.07;;
68089;SDS011;54880;50.986;6.990;2023-03-01T03:26:20;13.20;;;6.40;;
68089;SDS011;54880;50.986;6.990;2023-03-01T03:28:45;11.50;;;5.67;;
68089;SDS011;54880;50.986;6.990;2023-03-01T03:31:11;11.00;;;5.63;;
68089;SDS011;54880;50.986;6.990;2023-03-01T03:33:37;10.73;;;5.37;;
68089;SDS011;54880;50.986;6.990;2023-03-01T03:36:02;13.30;;;5.83;;
68089;SDS011;54880;50.986;6.990;2023-03-01T03:38:28;15.47;;;6.80;;
68089;SDS011;54880;50.986;6.990;2023-03-01T03:41:03;14.50;;;6.67;;
68089;SDS011;54880;50.986;6.990;2023-03-01T03:43:29;13.85;;;7.10;;
68089;SDS011;54880;50.986;6.990;2023-03-01T03:45:55;15.00;;;7.03;;
68089;SDS011;54880;50.986;6.990;2023-03-01T03:48:22;16.73;;;6.93;;
68089;SDS011;54880;50.986;6.990;2023-03-01T03:50:49;13.98;;;7.32;;
68089;SDS011;54880;50.986;6.990;2023-03-01T03:53:14;14.43;;;7.13;;
68089;SDS011;54880;50.986;6.990;2023-03-01T03:55:39;15.63;;;7.47;;
68089;SDS011;54880;50.986;6.990;2023-03-01T03:58:06;14.87;;;6.40;;
68089;SDS011;54880;50.986;6.990;2023-03-01T04:00:36;14.77;;;7.05;;
68089;SDS011;54880;50.986;6.990;2023-03-01T04:03:02;16.52;;;6.97;;
68089;SDS011;54880;50.986;6.990;2023-03-01T04:05:27;14.05;;;6.65;;
68089;SDS011;54880;50.986;6.990;2023-03-01T04:07:52;13.00;;;6.37;;
68089;SDS011;54880;50.986;6.990;2023-03-01T04:10:26;12.27;;;6.55;;
68089;SDS011;54880;50.986;6.990;2023-03-01T04:12:51;15.10;;;6.47;;
68089;SDS011;54880;50.986;6.990;2023-03-01T04:15:17;14.57;;;6.40;;
68089;SDS011;54880;50.986;6.990;2023-03-01T04:17:43;12.85;;;6.57;;
68089;SDS011;54880;50.986;6.990;2023-03-01T04:20:13;15.30;;;6.32;;
68089;SDS011;54880;50.986;6.990;2023-03-01T04:22:38;17.10;;;6.93;;
68089;SDS011;54880;50.986;6.990;2023-03-01T04:25:04;13.52;;;6.28;;
68089;SDS011;54880;50.986;6.990;2023-03-01T04:27:32;13.63;;;6.43;;
68089;SDS011;54880;50.986;6.990;2023-03-01T04:29:57;13.52;;;6.45;;
68089;SDS011;54880;50.986;6.990;2023-03-01T04:32:23;12.23;;;6.40;;
68089;SDS011;54880;50.986;6.990;2023-03-01T04:34:48;13.63;;;6.63;;
68089;SDS011;54880;50.986;6.990;2023-03-01T04:37:13;14.90;;;6.57;;
68089;SDS011;54880;50.986;6.990;2023-03-01T04:39:41;18.23;;;7.47;;
68089;SDS011;54880;50.986;6.990;2023-03-01T04:42:10;14.77;;;7.53;;
68089;SDS011;54880;50.986;6.990;2023-03-01T04:44:36;15.50;;;7.22;;
68089;SDS011;54880;50.986;6.990;2023-03-01T04:47:01;17.10;;;7.20;;
68089;SDS011;54880;50.986;6.990;2023-03-01T04:49:26;14.47;;;7.67;;
68089;SDS011;54880;50.986;6.990;2023-03-01T04:51:51;14.47;;;6.60;;
68089;SDS011;54880;50.986;6.990;2023-03-01T04:54:17;14.60;;;7.00;;
68089;SDS011;54880;50.986;6.990;2023-03-01T04:56:42;17.10;;;7.30;;
68089;SDS011;54880;50.986;6.990;2023-03-01T04:59:07;16.90;;;7.77;;
68089;SDS011;54880;50.986;6.990;2023-03-01T05:01:34;17.80;;;8.20;;
68089;SDS011;54880;50.986;6.990;2023-03-01T05:04:00;16.33;;;8.27;;
68089;SDS011;54880;50.986;6.990;2023-03-01T05:06:28;16.75;;;7.65;;
68089;SDS011;54880;50.986;6.990;2023-03-01T05:08:53;18.33;;;7.97;;
68089;SDS011;54880;50.986;6.990;2023-03-01T05:11:18;17.53;;;7.60;;
68089;SDS011;54880;50.986;6.990;2023-03-01T05:13:43;19.17;;;8.23;;
68089;SDS011;54880;50.986;6.990;2023-03-01T05:16:09;18.23;;;7.73;;
68089;SDS011;54880;50.986;6.990;2023-03-01T05:18:38;15.27;;;7.80;;
68089;SDS011;54880;50.986;6.990;2023-03-01T05:21:10;18.58;;;8.05;;
68089;SDS011;54880;50.986;6.990;2023-03-01T05:23:36;18.92;;;7.70;;
68089;SDS011;54880;50.986;6.990;2023-03-01T05:26:02;17.63;;;8.50;;
68089;SDS011;54880;50.986;6.990;2023-03-01T05:28:29;16.50;;;8.37;;
68089;SDS011;54880;50.986;6.990;2023-03-01T05:30:54;28.45;;;8.90;;
68089;SDS011;54880;50.986;6.990;2023-03-01T05:33:20;15.63;;;7.47;;
68089;SDS011;54880;50.986;6.990;2023-03-01T05:35:47;16.92;;;8.52;;
68089;SDS011;54880;50.986;6.990;2023-03-01T05:38:13;16.42;;;7.78;;
68089;SDS011;54880;50.986;6.990;2023-03-01T05:40:41;17.80;;;7.70;;
68089;SDS011;54880;50.986;6.990;2023-03-01T05:43:06;16.52;;;7.95;;
68089;SDS011;54880;50.986;6.990;2023-03-01T05:45:32;19.47;;;8.13;;
68089;SDS011;54880;50.986;6.990;2023-03-01T05:47:57;16.20;;;8.00;;
68089;SDS011;54880;50.986;6.990;2023-03-01T05:50:24;19.33;;;8.32;;
68089;SDS011;54880;50.986;6.990;2023-03-01T05:53:00;18.25;;;7.90;;
68089;SDS011;54880;50.986;6.990;2023-03-01T05:55:26;17.80;;;8.25;;
68089;SDS011;54880;50.986;6.990;2023-03-01T05:57:51;17.35;;;7.90;;
68089;SDS011;54880;50.986;6.990;2023-03-01T06:00:18;17.53;;;7.87;;
68089;SDS011;54880;50.986;6.990;2023-03-01T06:02:44;18.30;;;8.25;;
68089;SDS011;54880;50.986;6.990;2023-03-01T06:05:10;19.13;;;7.50;;
68089;SDS011;54880;50.986;6.990;2023-03-01T06:07:36;17.13;;;7.05;;
68089;SDS011;54880;50.986;6.990;2023-03-01T06:10:02;19.00;;;7.87;;
68089;SDS011;54880;50.986;6.990;2023-03-01T06:12:31;17.67;;;7.60;;
68089;SDS011;54880;50.986;6.990;2023-03-01T06:14:57;20.55;;;8.07;;
68089;SDS011;54880;50.986;6.990;2023-03-01T06:17:22;14.77;;;7.67;;
68089;SDS011;54880;50.986;6.990;2023-03-01T06:19:47;15.50;;;7.27;;
68089;SDS011;54880;50.986;6.990;2023-03-01T06:22:12;15.73;;;7.50;;
68089;SDS011;54880;50.986;6.990;2023-03-01T06:24:38;17.60;;;8.10;;
68089;SDS011;54880;50.986;6.990;2023-03-01T06:27:03;17.13;;;6.93;;
68089;SDS011;54880;50.986;6.990;2023-03-01T06:29:28;16.43;;;7.60;;
68089;SDS011;54880;50.986;6.990;2023-03-01T06:31:54;16.80;;;7.60;;
68089;SDS011;54880;50.986;6.990;2023-03-01T06:34:19;17.87;;;8.10;;
68089;SDS011;54880;50.986;6.990;2023-03-01T06:36:46;16.42;;;7.55;;
68089;SDS011;54880;50.986;6.990;2023-03-01T06:39:12;17.83;;;7.93;;
68089;SDS011;54880;50.986;6.990;2023-03-01T06:41:37;19.27;;;8.17;;
68089;SDS011;54880;50.986;6.990;2023-03-01T06:44:02;18.57;;;7.93;;
68089;SDS011;54880;50.986;6.990;2023-03-01T06:46:27;18.73;;;8.63;;
68089;SDS011;54880;50.986;6.990;2023-03-01T06:48:53;18.00;;;8.47;;
68089;SDS011;54880;50.986;6.990;2023-03-01T06:51:18;17.27;;;7.93;;
68089;SDS011;54880;50.986;6.990;2023-03-01T06:53:45;20.60;;;8.10;;
68089;SDS011;54880;50.986;6.990;2023-03-01T06:56:10;23.05;;;8.13;;
68089;SDS011;54880;50.986;6.990;2023-03-01T06:58:35;18.13;;;8.37;;
68089;SDS011;54880;50.986;6.990;2023-03-01T07:01:04;18.40;;;8.87;;
68089;SDS011;54880;50.986;6.990;2023-03-01T07:03:30;20.03;;;8.70;;
68089;SDS011;54880;50.986;6.990;2023-03-01T07:05:55;17.02;;;8.70;;
68089;SDS011;54880;50.986;6.990;2023-03-01T07:08:20;16.67;;;7.78;;
68089;SDS011;54880;50.986;6.990;2023-03-01T07:10:45;17.60;;;8.27;;
68089;SDS011;54880;50.986;6.990;2023-03-01T07:13:11;20.57;;;8.70;;
68089;SDS011;54880;50.986;6.990;2023-03-01T07:15:36;16.70;;;8.37;;
68089;SDS011;54880;50.986;6.990;2023-03-01T07:18:01;20.97;;;8.67;;
68089;SDS011;54880;50.986;6.990;2023-03-01T07:20:27;17.80;;;8.40;;
68089;SDS011;54880;50.986;6.990;2023-03-01T07:22:52;16.00;;;7.83;;
68089;SDS011;54880;50.986;6.990;2023-03-01T07:25:18;18.40;;;8.15;;
68089;SDS011;54880;50.986;6.990;2023-03-01T07:27:43;21.97;;;7.93;;
68089;SDS011;54880;50.986;6.990;2023-03-01T07:30:13;19.33;;;8.73;;
68089;SDS011;54880;50.986;6.990;2023-03-01T07:32:38;22.77;;;9.38;;
68089;SDS011;54880;50.986;6.990;2023-03-01T07:35:04;19.27;;;8.40;;
68089;SDS011;54880;50.986;6.990;2023-03-01T07:37:29;20.13;;;8.82;;
68089;SDS011;54880;50.986;6.990;2023-03-01T07:39:54;20.57;;;9.30;;
68089;SDS011;54880;50.986;6.990;2023-03-01T07:42:19;18.37;;;8.77;;
68089;SDS011;54880;50.986;6.990;2023-03-01T07:44:45;18.63;;;8.83;;
68089;SDS011;54880;50.986;6.990;2023-03-01T07:47:10;19.33;;;8.43;;
68089;SDS011;54880;50.986;6.990;2023-03-01T07:49:35;22.00;;;8.60;;
68089;SDS011;54880;50.986;6.990;2023-03-01T07:52:00;18.90;;;8.77;;
68089;SDS011;54880;50.986;6.990;2023-03-01T07:54:26;18.07;;;8.30;;
68089;SDS011;54880;50.986;6.990;2023-03-01T07:56:51;24.03;;;8.87;;
68089;SDS011;54880;50.986;6.990;2023-03-01T07:59:16;18.13;;;8.67;;
68089;SDS011;54880;50.986;6.990;2023-03-01T08:01:42;20.60;;;9.33;;
68089;SDS011;54880;50.986;6.990;2023-03-01T08:04:08;21.03;;;9.47;;
68089;SDS011;54880;50.986;6.990;2023-03-01T08:06:34;21.30;;;8.60;;
68089;SDS011;54880;50.986;6.990;2023-03-01T08:08:59;21.00;;;8.05;;
68089;SDS011;54880;50.986;6.990;2023-03-01T08:11:24;18.57;;;8.60;;
68089;SDS011;54880;50.986;6.990;2023-03-01T08:13:50;16.30;;;8.70;;
68089;SDS011;54880;50.986;6.990;2023-03-01T08:16:15;20.30;;;9.03;;
68089;SDS011;54880;50.986;6.990;2023-03-01T08:18:41;20.43;;;9.77;;
68089;SDS011;54880;50.986;6.990;2023-03-01T08:21:08;18.05;;;8.93;;
68089;SDS011;54880;50.986;6.990;2023-03-01T08:23:33;19.95;;;8.93;;
68089;SDS011;54880;50.986;6.990;2023-03-01T08:26:06;18.17;;;8.57;;
68089;SDS011;54880;50.986;6.990;2023-03-01T08:28:32;19.65;;;8.73;;
68089;SDS011;54880;50.986;6.990;2023-03-01T08:30:57;19.47;;;9.00;;
68089;SDS011;54880;50.986;6.990;2023-03-01T08:33:22;17.83;;;8.90;;
68089;SDS011;54880;50.986;6.990;2023-03-01T08:35:47;17.47;;;9.13;;
68089;SDS011;54880;50.986;6.990;2023-03-01T08:38:13;20.67;;;9.77;;
68089;SDS011;54880;50.986;6.990;2023-03-01T08:40:38;18.63;;;8.60;;
68089;SDS011;54880;50.986;6.990;2023-03-01T08:43:03;18.63;;;8.90;;
68089;SDS011;54880;50.986;6.990;2023-03-01T08:45:28;16.40;;;8.57;;
68089;SDS011;54880;50.986;6.990;2023-03-01T08:47:54;17.53;;;8.70;;
68089;SDS011;54880;50.986;6.990;2023-03-01T08:50:19;15.87;;;7.90;;
68089;SDS011;54880;50.986;6.990;2023-03-01T08:52:44;17.53;;;8.60;;
68089;SDS011;54880;50.986;6.990;2023-03-01T08:55:09;18.00;;;8.77;;
68089;SDS011;54880;50.986;6.990;2023-03-01T08:57:35;16.57;;;7.70;;
68089;SDS011;54880;50.986;6.990;2023-03-01T09:00:00;17.93;;;7.93;;
68089;SDS011;54880;50.986;6.990;2023-03-01T09:02:25;17.60;;;8.47;;
68089;SDS011;54880;50.986;6.990;2023-03-01T09:04:51;17.43;;;7.87;;
68089;SDS011;54880;50.986;6.990;2023-03-01T09:07:16;19.17;;;8.60;;
68089;SDS011;54880;50.986;6.990;2023-03-01T09:09:41;17.43;;;8.07;;
68089;SDS011;54880;50.986;6.990;2023-03-01T09:12:06;16.63;;;7.27;;
68089;SDS011;54880;50.986;6.990;2023-03-01T09:14:31;15.80;;;7.73;;
68089;SDS011;54880;50.986;6.990;2023-03-01T09:16:57;17.10;;;7.50;;
68089;SDS011;54880;50.986;6.990;2023-03-01T09:19:22;18.80;;;7.77;;
68089;SDS011;54880;50.986;6.990;2023-03-01T09:21:47;21.57;;;8.17;;
68089;SDS011;54880;50.986;6.990;2023-03-01T09:24:21;15.15;;;7.80;;
68089;SDS011;54880;50.986;6.990;2023-03-01T09:26:47;14.80;;;7.53;;
68089;SDS011;54880;50.986;6.990;2023-03-01T09:29:12;17.77;;;7.83;;
68089;SDS011;54880;50.986;6.990;2023-03-01T09:31:38;16.63;;;7.60;;
68089;SDS011;54880;50.986;6.990;2023-03-01T09:34:04;16.70;;;7.30;;
68089;SDS011;54880;50.986;6.990;2023-03-01T09:36:29;16.48;;;7.60;;
68089;SDS011;54880;50.986;6.990;2023-03-01T09:38:55;18.77;;;8.17;;
68089;SDS011;54880;50.986;6.990;2023-03-01T09:43:56;15.13;;;7.63;;
68089;SDS011;54880;50.986;6.990;2023-03-01T09:46:23;15.43;;;7.65;;
68089;SDS011;54880;50.986;6.990;2023-03-01T09:48:50;15.97;;;7.50;;
68089;SDS011;54880;50.986;6.990;2023-03-01T09:51:17;17.10;;;7.22;;
68089;SDS011;54880;50.986;6.990;2023-03-01T09:53:44;16.58;;;7.70;;
68089;SDS011;54880;50.986;6.990;2023-03-01T10:04:18;15.57;;;7.00;;
68089;SDS011;54880;50.986;6.990;2023-03-01T10:06:51;16.27;;;7.87;;
68089;SDS011;54880;50.986;6.990;2023-03-01T10:09:17;18.23;;;7.60;;
68089;SDS011;54880;50.986;6.990;2023-03-01T10:11:45;16.92;;;7.40;;
68089;SDS011;54880;50.986;6.990;2023-03-01T10:14:27;17.23;;;6.70;;
68089;SDS011;54880;50.986;6.990;2023-03-01T10:16:55;16.42;;;7.28;;
68089;SDS011;54880;50.986;6.990;2023-03-01T10:19:28;16.38;;;8.25;;
68089;SDS011;54880;50.986;6.990;2023-03-01T10:21:56;21.30;;;8.38;;
68089;SDS011;54880;50.986;6.990;2023-03-01T10:24:22;19.02;;;7.38;;
68089;SDS011;54880;50.986;6.990;2023-03-01T10:26:50;15.73;;;7.73;;
68089;SDS011;54880;50.986;6.990;2023-03-01T10:29:18;16.23;;;8.47;;
68089;SDS011;54880;50.986;6.990;2023-03-01T10:31:46;20.27;;;7.68;;
68089;SDS011;54880;50.986;6.990;2023-03-01T10:36:40;15.20;;;7.53;;
68089;SDS011;54880;50.986;6.990;2023-03-01T10:39:17;18.17;;;8.18;;
68089;SDS011;54880;50.986;6.990;2023-03-01T10:42:04;16.43;;;8.03;;
68089;SDS011;54880;50.986;6.990;2023-03-01T10:46:59;15.75;;;7.40;;
68089;SDS011;54880;50.986;6.990;2023-03-01T10:49:26;16.38;;;7.53;;
68089;SDS011;54880;50.986;6.990;2023-03-01T10:51:52;17.00;;;7.97;;
68089;SDS011;54880;50.986;6.990;2023-03-01T10:56:47;19.07;;;8.23;;
68089;SDS011;54880;50.986;6.990;2023-03-01T10:59:22;15.30;;;7.63;;
68089;SDS011;54880;50.986;6.990;2023-03-01T11:01:49;14.00;;;6.50;;
68089;SDS011;54880;50.986;6.990;2023-03-01T11:04:25;17.55;;;7.72;;
68089;SDS011;54880;50.986;6.990;2023-03-01T11:06:57;17.77;;;8.27;;
68089;SDS011;54880;50.986;6.990;2023-03-01T11:09:23;20.08;;;8.18;;
68089;SDS011;54880;50.986;6.990;2023-03-01T11:11:53;19.52;;;7.70;;
68089;SDS011;54880;50.986;6.990;2023-03-01T11:14:20;19.30;;;8.35;;
68089;SDS011;54880;50.986;6.990;2023-03-01T11:16:47;14.23;;;7.37;;
68089;SDS011;54880;50.986;6.990;2023-03-01T11:21:44;15.00;;;7.50;;
68089;SDS011;54880;50.986;6.990;2023-03-01T11:24:12;17.35;;;7.90;;
68089;SDS011;54880;50.986;6.990;2023-03-01T11:26:41;16.73;;;7.30;;
68089;SDS011;54880;50.986;6.990;2023-03-01T11:29:12;14.77;;;7.18;;
68089;SDS011;54880;50.986;6.990;2023-03-01T11:31:37;15.13;;;7.13;;
68089;SDS011;54880;50.986;6.990;2023-03-01T11:34:21;15.27;;;7.47;;
68089;SDS011;54880;50.986;6.990;2023-03-01T11:36:53;14.85;;;7.75;;
68089;SDS011;54880;50.986;6.990;2023-03-01T11:41:48;14.90;;;7.22;;
68089;SDS011;54880;50.986;6.990;2023-03-01T11:44:20;15.27;;;7.47;;
68089;SDS011;54880;50.986;6.990;2023-03-01T11:47:10;18.13;;;7.13;;
68089;SDS011;54880;50.986;6.990;2023-03-01T11:52:20;14.52;;;7.07;;
68089;SDS011;54880;50.986;6.990;2023-03-01T12:13:13;14.68;;;7.60;;
68089;SDS011;54880;50.986;6.990;2023-03-01T12:31:16;13.48;;;6.80;;
68089;SDS011;54880;50.986;6.990;2023-03-01T12:36:27;13.45;;;7.07;;
68089;SDS011;54880;50.986;6.990;2023-03-01T12:39:05;16.02;;;7.22;;
68089;SDS011;54880;50.986;6.990;2023-03-01T12:41:46;15.35;;;7.10;;
68089;SDS011;54880;50.986;6.990;2023-03-01T12:44:30;15.80;;;6.60;;
68089;SDS011;54880;50.986;6.990;2023-03-01T12:49:40;16.08;;;6.57;;
68089;SDS011;54880;50.986;6.990;2023-03-01T12:52:12;16.40;;;6.50;;
68089;SDS011;54880;50.986;6.990;2023-03-01T12:54:39;13.07;;;6.25;;
68089;SDS011;54880;50.986;6.990;2023-03-01T12:57:47;14.97;;;6.80;;
68089;SDS011;54880;50.986;6.990;2023-03-01T13:00:00;16.07;;;6.93;;
68089;SDS011;54880;50.986;6.990;2023-03-01T13:05:07;14.90;;;7.10;;
68089;SDS011;54880;50.986;6.990;2023-03-01T13:10:26;12.80;;;6.25;;
68089;SDS011;54880;50.986;6.990;2023-03-01T13:17:47;15.67;;;7.27;;
68089;SDS011;54880;50.986;6.990;2023-03-01T13:20:14;13.30;;;6.65;;
68089;SDS011;54880;50.986;6.990;2023-03-01T13:22:40;15.35;;;6.75;;
68089;SDS011;54880;50.986;6.990;2023-03-01T13:25:18;13.33;;;6.87;;
68089;SDS011;54880;50.986;6.990;2023-03-01T13:27:44;13.93;;;7.20;;
68089;SDS011;54880;50.986;6.990;2023-03-01T13:30:38;13.65;;;6.35;;
68089;SDS011;54880;50.986;6.990;2023-03-01T13:33:15;14.73;;;6.80;;
68089;SDS011;54880;50.986;6.990;2023-03-01T13:35:41;13.48;;;6.95;;
68089;SDS011;54880;50.986;6.990;2023-03-01T13:43:58;12.53;;;6.07;;
68089;SDS011;54880;50.986;6.990;2023-03-01T13:46:09;12.52;;;6.47;;
68089;SDS011;54880;50.986;6.990;2023-03-01T13:48:36;13.77;;;6.60;;
68089;SDS011;54880;50.986;6.990;2023-03-01T13:51:03;12.50;;;6.07;;
68089;SDS011;54880;50.986;6.990;2023-03-01T13:53:33;12.32;;;6.32;;
68089;SDS011;54880;50.986;6.990;2023-03-01T13:56:00;13.93;;;6.32;;
68089;SDS011;54880;50.986;6.990;2023-03-01T13:58:30;11.85;;;6.18;;
68089;SDS011;54880;50.986;6.990;2023-03-01T14:01:06;12.63;;;6.10;;
68089;SDS011;54880;50.986;6.990;2023-03-01T14:03:33;14.85;;;5.60;;
68089;SDS011;54880;50.986;6.990;2023-03-01T14:08:27;13.05;;;5.60;;
68089;SDS011;54880;50.986;6.990;2023-03-01T14:18:47;12.80;;;5.80;;
68089;SDS011;54880;50.986;6.990;2023-03-01T14:21:17;13.90;;;6.10;;
68089;SDS011;54880;50.986;6.990;2023-03-01T14:23:42;11.10;;;5.20;;
68089;SDS011;54880;50.986;6.990;2023-03-01T14:26:08;16.40;;;5.77;;
68089;SDS011;54880;50.986;6.990;2023-03-01T14:28:34;13.85;;;6.20;;
68089;SDS011;54880;50.986;6.990;2023-03-01T14:31:05;12.27;;;5.63;;
68089;SDS011;54880;50.986;6.990;2023-03-01T14:33:54;13.85;;;6.68;;
68089;SDS011;54880;50.986;6.990;2023-03-01T14:36:25;14.77;;;6.23;;
68089;SDS011;54880;50.986;6.990;2023-03-01T14:38:50;13.15;;;6.00;;
68089;SDS011;54880;50.986;6.990;2023-03-01T14:43:41;14.13;;;6.53;;
68089;SDS011;54880;50.986;6.990;2023-03-01T14:46:16;11.02;;;6.13;;
68089;SDS011;54880;50.986;6.990;2023-03-01T14:48:42;14.05;;;6.53;;
68089;SDS011;54880;50.986;6.990;2023-03-01T14:51:07;15.17;;;5.83;;
68089;SDS011;54880;50.986;6.990;2023-03-01T14:53:32;14.13;;;6.73;;
68089;SDS011;54880;50.986;6.990;2023-03-01T14:56:01;14.73;;;6.20;;
68089;SDS011;54880;50.986;6.990;2023-03-01T14:58:31;15.25;;;6.50;;
68089;SDS011;54880;50.986;6.990;2023-03-01T15:01:01;13.98;;;6.03;;
68089;SDS011;54880;50.986;6.990;2023-03-01T15:03:33;12.87;;;5.70;;
68089;SDS011;54880;50.986;6.990;2023-03-01T15:06:03;15.88;;;6.03;;
68089;SDS011;54880;50.986;6.990;2023-03-01T15:08:29;14.02;;;5.78;;
68089;SDS011;54880;50.986;6.990;2023-03-01T15:13:24;10.97;;;5.17;;
68089;SDS011;54880;50.986;6.990;2023-03-01T15:15:50;12.75;;;6.05;;
68089;SDS011;54880;50.986;6.990;2023-03-01T15:18:20;12.27;;;6.03;;
68089;SDS011;54880;50.986;6.990;2023-03-01T15:20:46;12.32;;;6.50;;
68089;SDS011;54880;50.986;6.990;2023-03-01T15:23:23;11.83;;;5.93;;
68089;SDS011;54880;50.986;6.990;2023-03-01T15:25:49;16.50;;;6.43;;
68089;SDS011;54880;50.986;6.990;2023-03-01T15:28:31;13.38;;;5.80;;
68089;SDS011;54880;50.986;6.990;2023-03-01T15:31:00;13.35;;;5.82;;
68089;SDS011;54880;50.986;6.990;2023-03-01T15:33:40;11.95;;;6.28;;
68089;SDS011;54880;50.986;6.990;2023-03-01T15:38:56;12.00;;;6.05;;
68089;SDS011;54880;50.986;6.990;2023-03-01T15:43:48;13.23;;;5.90;;
68089;SDS011;54880;50.986;6.990;2023-03-01T15:46:19;11.82;;;5.90;;
68089;SDS011;54880;50.986;6.990;2023-03-01T15:48:46;12.80;;;6.13;;
68089;SDS011;54880;50.986;6.990;2023-03-01T15:51:12;11.87;;;5.60;;
68089;SDS011;54880;50.986;6.990;2023-03-01T15:53:37;14.95;;;5.93;;
68089;SDS011;54880;50.986;6.990;2023-03-01T15:56:03;11.13;;;6.00;;
68089;SDS011;54880;50.986;6.990;2023-03-01T15:58:28;10.67;;;5.70;;
68089;SDS011;54880;50.986;6.990;2023-03-01T16:00:53;12.67;;;6.07;;
68089;SDS011;54880;50.986;6.990;2023-03-01T16:03:22;11.68;;;5.82;;
68089;SDS011;54880;50.986;6.990;2023-03-01T16:05:48;11.48;;;5.90;;
68089;SDS011;54880;50.986;6.990;2023-03-01T16:08:15;13.82;;;6.15;;
68089;SDS011;54880;50.986;6.990;2023-03-01T16:10:41;10.82;;;6.00;;
68089;SDS011;54880;50.986;6.990;2023-03-01T16:13:08;12.45;;;6.50;;
68089;SDS011;54880;50.986;6.990;2023-03-01T16:15:34;17.35;;;6.43;;
68089;SDS011;54880;50.986;6.990;2023-03-01T16:18:00;11.90;;;6.30;;
68089;SDS011;54880;50.986;6.990;2023-03-01T16:20:26;12.63;;;6.50;;
68089;SDS011;54880;50.986;6.990;2023-03-01T16:22:55;11.03;;;5.93;;
68089;SDS011;54880;50.986;6.990;2023-03-01T16:25:22;15.65;;;7.50;;
68089;SDS011;54880;50.986;6.990;2023-03-01T16:27:49;12.67;;;5.73;;